Wetterdaten: Woche 18.06.07 - 24.06.07 (KW25)
Datum Zeit Temperatur Luftfeuchte Luftdruck Niederschlag Wind Richtung Sonnenschein Solar Taupunkt Windchill Windben
18.06.2007 00:00 16.2 C 97 % 1009.7 hPa 1.8 l/m 2.2 km/h (1 Bft) SO 0.00 h 0 W/m 15.7 C 16.2 C 4.3 km/h (1 Bft)
18.06.2007 01:00 16.2 C 97 % 1009.8 hPa 0.4 l/m 1.7 km/h (1 Bft) S 0.00 h 0 W/m 15.6 C 16.2 C 4.6 km/h (1 Bft)
18.06.2007 02:00 16.2 C 98 % 1010.2 hPa 1.6 l/m 2.2 km/h (1 Bft) SW 0.00 h 0 W/m 15.9 C 16.2 C 5.5 km/h (1 Bft)
18.06.2007 03:00 16.1 C 98 % 1010.9 hPa 0.6 l/m 2.7 km/h (1 Bft) S-SO 0.00 h 0 W/m 15.8 C 16.1 C 6.0 km/h (2 Bft)
18.06.2007 04:00 15.9 C 98 % 1011.2 hPa 0.2 l/m 3.3 km/h (1 Bft) S-SO 0.00 h 0 W/m 15.5 C 15.9 C 6.9 km/h (2 Bft)
18.06.2007 05:00 15.7 C 98 % 1011.6 hPa 0.0 l/m 2.2 km/h (1 Bft) S-SO 0.03 h 17 W/m 15.4 C 15.7 C 4.8 km/h (1 Bft)
18.06.2007 06:00 16.1 C 97 % 1011.9 hPa 0.0 l/m 1.1 km/h (1 Bft) S-SO 0.02 h 50 W/m 15.6 C 16.1 C 3.2 km/h (1 Bft)
18.06.2007 07:00 16.7 C 95 % 1012.2 hPa 0.0 l/m 1.6 km/h (1 Bft) S-SO 0.12 h 123 W/m 15.9 C 16.7 C 4.3 km/h (1 Bft)
18.06.2007 08:00 18.2 C 90 % 1012.3 hPa 0.0 l/m 1.6 km/h (1 Bft) W-SW 0.80 h 363 W/m 16.6 C 18.2 C 4.0 km/h (1 Bft)
18.06.2007 09:00 19.7 C 84 % 1012.8 hPa 0.0 l/m 3.1 km/h (1 Bft) S-SO 0.90 h 502 W/m 16.9 C 19.7 C 6.3 km/h (2 Bft)
18.06.2007 10:00 21.3 C 78 % 1012.8 hPa 0.0 l/m 3.1 km/h (1 Bft) W-SW 0.98 h 682 W/m 17.4 C 21.3 C 6.4 km/h (2 Bft)
18.06.2007 11:00 22.8 C 70 % 1012.9 hPa 0.0 l/m 4.5 km/h (1 Bft) SO 0.93 h 806 W/m 17.0 C 22.8 C 7.8 km/h (2 Bft)
18.06.2007 12:00 24.1 C 65 % 1012.8 hPa 0.0 l/m 3.7 km/h (1 Bft) S-SO 0.75 h 781 W/m 17.2 C 24.1 C 7.0 km/h (2 Bft)
18.06.2007 13:00 24.2 C 63 % 1012.7 hPa 0.0 l/m 3.9 km/h (1 Bft) N-NW 0.32 h 522 W/m 16.6 C 24.2 C 6.4 km/h (2 Bft)
18.06.2007 14:00 20.7 C 76 % 1013.0 hPa 13.8 l/m 7.5 km/h (2 Bft) N 0.25 h 337 W/m 16.2 C 20.7 C 12.4 km/h (3 Bft)
18.06.2007 15:00 18.8 C 90 % 1013.5 hPa 0.0 l/m 1.0 km/h (0 Bft) SO 0.00 h 237 W/m 17.2 C 18.8 C 2.2 km/h (1 Bft)
18.06.2007 16:00 21.1 C 87 % 1013.4 hPa 0.0 l/m 4.0 km/h (1 Bft) N-NW 0.72 h 588 W/m 18.8 C 21.1 C 6.5 km/h (2 Bft)
18.06.2007 17:00 22.3 C 79 % 1012.7 hPa 0.0 l/m 3.1 km/h (1 Bft) W-NW 0.47 h 403 W/m 18.4 C 22.3 C 5.1 km/h (1 Bft)
18.06.2007 18:00 22.8 C 68 % 1012.2 hPa 0.0 l/m 0.8 km/h (0 Bft) W-NW 0.42 h 247 W/m 16.5 C 22.8 C 1.6 km/h (1 Bft)
18.06.2007 19:00 23.3 C 65 % 1012.1 hPa 0.0 l/m 1.0 km/h (0 Bft) O-SO 0.68 h 215 W/m 16.4 C 23.3 C 2.4 km/h (1 Bft)
18.06.2007 20:00 21.5 C 79 % 1012.3 hPa 0.0 l/m 0.1 km/h (0 Bft) S-SO 0.00 h 49 W/m 17.7 C 21.5 C 0.6 km/h (0 Bft)
18.06.2007 21:00 19.5 C 88 % 1012.7 hPa 0.0 l/m 0.8 km/h (0 Bft) S-SO 0.13 h 14 W/m 17.3 C 19.5 C 1.5 km/h (1 Bft)
18.06.2007 22:00 18.0 C 93 % 1013.2 hPa 0.0 l/m 1.1 km/h (1 Bft) SO 0.00 h 0 W/m 16.8 C 18.0 C 1.8 km/h (1 Bft)
18.06.2007 23:00 17.2 C 94 % 1013.7 hPa 0.0 l/m 0.2 km/h (0 Bft) O-SO 0.00 h 0 W/m 16.3 C 17.2 C 0.7 km/h (0 Bft)
19.06.2007 00:00 16.8 C 96 % 1013.6 hPa 0.0 l/m 0.7 km/h (0 Bft) O-SO 0.00 h 0 W/m 16.2 C 16.8 C 1.4 km/h (1 Bft)
19.06.2007 01:00 16.7 C 97 % 1013.7 hPa 0.0 l/m 0.1 km/h (0 Bft) O-SO 0.00 h 0 W/m 16.2 C 16.7 C 0.2 km/h (0 Bft)
19.06.2007 02:00 16.9 C 97 % 1015.4 hPa 2.2 l/m 1.3 km/h (1 Bft) O-SO 0.00 h 0 W/m 16.4 C 16.9 C 3.2 km/h (1 Bft)
19.06.2007 03:00 16.8 C 97 % 1015.2 hPa 0.8 l/m 1.0 km/h (0 Bft) O 0.00 h 0 W/m 16.2 C 16.8 C 2.9 km/h (1 Bft)
19.06.2007 04:00 16.7 C 96 % 1015.3 hPa 0.0 l/m 2.8 km/h (1 Bft) O-SO 0.00 h 0 W/m 16.1 C 16.7 C 4.4 km/h (1 Bft)
19.06.2007 05:00 16.0 C 98 % 1015.1 hPa 0.0 l/m 0.6 km/h (0 Bft) NO 0.00 h 8 W/m 15.7 C 16.0 C 1.5 km/h (1 Bft)
19.06.2007 06:00 15.8 C 100 % 1015.3 hPa 0.0 l/m 0.4 km/h (0 Bft) NO 0.08 h 52 W/m 15.7 C 15.8 C 1.3 km/h (1 Bft)
19.06.2007 07:00 16.6 C 100 % 1015.0 hPa 0.0 l/m 0.7 km/h (0 Bft) W-NW 0.58 h 179 W/m 16.6 C 16.6 C 1.9 km/h (1 Bft)
19.06.2007 08:00 18.2 C 95 % 1014.9 hPa 0.0 l/m 0.4 km/h (0 Bft) SW 0.83 h 361 W/m 17.3 C 18.2 C 1.3 km/h (1 Bft)
19.06.2007 09:00 19.8 C 85 % 1014.9 hPa 0.0 l/m 1.3 km/h (1 Bft) W 1.00 h 534 W/m 17.2 C 19.8 C 2.7 km/h (1 Bft)
19.06.2007 10:00 21.7 C 77 % 1014.5 hPa 0.0 l/m 1.8 km/h (1 Bft) W-NW 1.00 h 670 W/m 17.5 C 21.7 C 3.3 km/h (1 Bft)
19.06.2007 11:00 23.6 C 71 % 1014.1 hPa 0.0 l/m 3.0 km/h (1 Bft) W-NW 1.00 h 778 W/m 18.0 C 23.6 C 4.9 km/h (1 Bft)
19.06.2007 12:00 25.7 C 66 % 1013.5 hPa 0.0 l/m 2.1 km/h (1 Bft) O-SO 1.00 h 850 W/m 18.9 C 25.7 C 4.2 km/h (1 Bft)
19.06.2007 13:00 27.2 C 58 % 1012.9 hPa 0.0 l/m 2.1 km/h (1 Bft) NO 1.00 h 873 W/m 18.1 C 27.2 C 4.6 km/h (1 Bft)
19.06.2007 14:00 28.0 C 53 % 1012.3 hPa 0.0 l/m 2.2 km/h (1 Bft) O-SO 1.00 h 849 W/m 17.5 C 28.0 C 4.5 km/h (1 Bft)
19.06.2007 15:00 28.9 C 48 % 1011.6 hPa 0.0 l/m 2.8 km/h (1 Bft) O-SO 1.00 h 774 W/m 16.9 C 28.9 C 4.9 km/h (1 Bft)
19.06.2007 16:00 29.3 C 46 % 1011.0 hPa 0.0 l/m 3.8 km/h (1 Bft) O-SO 1.00 h 656 W/m 16.4 C 29.3 C 6.2 km/h (2 Bft)
19.06.2007 17:00 29.2 C 44 % 1010.6 hPa 0.0 l/m 3.1 km/h (1 Bft) O 1.00 h 513 W/m 15.8 C 29.2 C 5.5 km/h (1 Bft)
19.06.2007 18:00 29.2 C 43 % 1009.9 hPa 0.0 l/m 2.1 km/h (1 Bft) O-NO 1.00 h 358 W/m 15.3 C 29.2 C 4.9 km/h (1 Bft)
19.06.2007 19:00 28.1 C 45 % 1009.5 hPa 0.0 l/m 2.2 km/h (1 Bft) O-NO 0.83 h 197 W/m 15.2 C 28.1 C 4.3 km/h (1 Bft)
19.06.2007 20:00 26.1 C 52 % 1009.2 hPa 0.0 l/m 0.3 km/h (0 Bft) NO 0.02 h 47 W/m 15.3 C 26.1 C 1.6 km/h (1 Bft)
19.06.2007 21:00 23.6 C 63 % 1009.3 hPa 0.0 l/m 0.7 km/h (0 Bft) N-NO 0.00 h 9 W/m 16.1 C 23.6 C 1.8 km/h (1 Bft)
19.06.2007 22:00 21.6 C 71 % 1009.6 hPa 0.0 l/m 0.4 km/h (0 Bft) SO 0.00 h 0 W/m 16.2 C 21.6 C 1.3 km/h (1 Bft)
19.06.2007 23:00 20.5 C 74 % 1009.3 hPa 0.0 l/m 0.4 km/h (0 Bft) SO 0.00 h 0 W/m 15.7 C 20.5 C 1.3 km/h (1 Bft)
20.06.2007 00:00 19.3 C 79 % 1009.3 hPa 0.0 l/m 0.4 km/h (0 Bft) SO 0.00 h 0 W/m 15.5 C 19.3 C 1.2 km/h (1 Bft)
20.06.2007 01:00 19.2 C 80 % 1010.1 hPa 0.0 l/m 2.0 km/h (1 Bft) N-NO 0.00 h 0 W/m 15.6 C 19.2 C 3.9 km/h (1 Bft)
20.06.2007 02:00 19.2 C 78 % 1010.1 hPa 0.0 l/m 4.1 km/h (1 Bft) O-SO 0.00 h 0 W/m 15.3 C 19.2 C 5.7 km/h (1 Bft)
20.06.2007 03:00 18.8 C 79 % 1010.4 hPa 0.0 l/m 3.0 km/h (1 Bft) O-SO 0.00 h 0 W/m 15.2 C 18.8 C 4.2 km/h (1 Bft)
20.06.2007 04:00 18.5 C 83 % 1011.2 hPa 0.0 l/m 1.8 km/h (1 Bft) O 0.00 h 0 W/m 15.5 C 18.5 C 3.5 km/h (1 Bft)
20.06.2007 05:00 18.3 C 85 % 1011.9 hPa 0.0 l/m 2.6 km/h (1 Bft) O-SO 0.00 h 10 W/m 15.8 C 18.3 C 4.2 km/h (1 Bft)
20.06.2007 06:00 18.4 C 87 % 1012.7 hPa 0.0 l/m 1.4 km/h (1 Bft) O-SO 0.00 h 40 W/m 16.1 C 18.4 C 2.6 km/h (1 Bft)
20.06.2007 07:00 19.1 C 87 % 1012.8 hPa 0.0 l/m 1.5 km/h (1 Bft) O-SO 0.15 h 126 W/m 16.8 C 19.1 C 3.0 km/h (1 Bft)
20.06.2007 08:00 20.7 C 82 % 1013.4 hPa 0.0 l/m 1.5 km/h (1 Bft) W 0.47 h 267 W/m 17.4 C 20.7 C 3.4 km/h (1 Bft)
20.06.2007 09:00 22.5 C 73 % 1013.8 hPa 0.0 l/m 9.6 km/h (2 Bft) W 0.30 h 346 W/m 17.4 C 22.5 C 14.7 km/h (3 Bft)
20.06.2007 10:00 23.0 C 74 % 1013.7 hPa 0.0 l/m 7.2 km/h (2 Bft) W 0.72 h 557 W/m 18.0 C 23.0 C 11.6 km/h (2 Bft)
20.06.2007 11:00 25.0 C 68 % 1013.3 hPa 0.0 l/m 8.1 km/h (2 Bft) W 1.00 h 745 W/m 18.7 C 25.0 C 12.3 km/h (3 Bft)
20.06.2007 12:00 26.2 C 66 % 1013.1 hPa 0.0 l/m 7.3 km/h (2 Bft) W-SW 1.00 h 817 W/m 19.2 C 26.2 C 11.6 km/h (2 Bft)
20.06.2007 13:00 27.6 C 57 % 1012.5 hPa 0.0 l/m 6.8 km/h (2 Bft) W 1.00 h 841 W/m 18.3 C 27.6 C 10.6 km/h (2 Bft)
20.06.2007 14:00 28.7 C 53 % 1011.9 hPa 0.0 l/m 5.7 km/h (1 Bft) W-NW 1.00 h 820 W/m 18.3 C 28.7 C 8.7 km/h (2 Bft)
20.06.2007 15:00 29.5 C 54 % 1011.5 hPa 0.0 l/m 4.5 km/h (1 Bft) W-SW 1.00 h 751 W/m 19.0 C 29.5 C 7.3 km/h (2 Bft)
20.06.2007 16:00 29.5 C 49 % 1011.2 hPa 0.0 l/m 2.9 km/h (1 Bft) W-SW 1.00 h 644 W/m 17.5 C 29.5 C 5.3 km/h (1 Bft)
20.06.2007 17:00 29.7 C 47 % 1010.7 hPa 0.0 l/m 2.9 km/h (1 Bft) W-NW 0.97 h 495 W/m 17.0 C 29.7 C 5.0 km/h (1 Bft)
20.06.2007 18:00 29.5 C 50 % 1010.0 hPa 0.0 l/m 3.6 km/h (1 Bft) W 0.78 h 326 W/m 17.8 C 29.5 C 5.7 km/h (1 Bft)
20.06.2007 19:00 27.3 C 57 % 1010.1 hPa 0.0 l/m 7.0 km/h (2 Bft) W 0.18 h 132 W/m 18.1 C 27.3 C 11.3 km/h (2 Bft)
20.06.2007 20:00 25.7 C 60 % 1010.4 hPa 0.0 l/m 9.2 km/h (2 Bft) W 0.00 h 22 W/m 17.5 C 25.7 C 14.7 km/h (3 Bft)
20.06.2007 21:00 22.9 C 79 % 1010.6 hPa 0.2 l/m 3.8 km/h (1 Bft) O-SO 0.00 h 0 W/m 19.1 C 22.9 C 6.3 km/h (2 Bft)
20.06.2007 22:00 22.1 C 81 % 1011.2 hPa 0.0 l/m 4.9 km/h (1 Bft) SO 0.00 h 0 W/m 18.7 C 22.1 C 7.3 km/h (2 Bft)
20.06.2007 23:00 21.6 C 82 % 1011.2 hPa 0.0 l/m 1.9 km/h (1 Bft) O-SO 0.00 h 0 W/m 18.4 C 21.6 C 3.3 km/h (1 Bft)
21.06.2007 00:00 21.1 C 82 % 1011.3 hPa 0.0 l/m 4.0 km/h (1 Bft) O-SO 0.00 h 0 W/m 17.8 C 21.1 C 6.4 km/h (2 Bft)
21.06.2007 01:00 20.2 C 86 % 1011.0 hPa 0.0 l/m 2.4 km/h (1 Bft) O-SO 0.00 h 0 W/m 17.7 C 20.2 C 3.7 km/h (1 Bft)
21.06.2007 02:00 19.8 C 87 % 1011.1 hPa 2.0 l/m 1.7 km/h (1 Bft) SO 0.00 h 0 W/m 17.6 C 19.8 C 3.3 km/h (1 Bft)
21.06.2007 03:00 19.0 C 96 % 1011.5 hPa 0.8 l/m 2.2 km/h (1 Bft) N 0.00 h 0 W/m 18.3 C 19.0 C 4.1 km/h (1 Bft)
21.06.2007 04:00 18.6 C 97 % 1011.2 hPa 0.2 l/m 2.2 km/h (1 Bft) W-NW 0.00 h 0 W/m 18.2 C 18.6 C 4.1 km/h (1 Bft)
21.06.2007 05:00 18.5 C 97 % 1010.5 hPa 0.6 l/m 0.5 km/h (0 Bft) SO 0.00 h 0 W/m 18.0 C 18.5 C 1.1 km/h (1 Bft)
21.06.2007 06:00 18.2 C 98 % 1010.5 hPa 0.4 l/m 0.8 km/h (0 Bft) S-SO 0.00 h 29 W/m 18.0 C 18.2 C 1.9 km/h (1 Bft)
21.06.2007 07:00 18.8 C 93 % 1009.6 hPa 0.0 l/m 3.8 km/h (1 Bft) O-SO 0.58 h 218 W/m 17.6 C 18.8 C 6.2 km/h (2 Bft)
21.06.2007 08:00 19.2 C 89 % 1009.4 hPa 0.0 l/m 3.6 km/h (1 Bft) NW 0.40 h 196 W/m 17.4 C 19.2 C 6.4 km/h (2 Bft)
21.06.2007 09:00 16.9 C 94 % 1012.0 hPa 9.8 l/m 14.6 km/h (3 Bft) W 0.00 h 12 W/m 15.9 C 16.9 C 22.6 km/h (4 Bft)
21.06.2007 10:00 15.7 C 98 % 1012.2 hPa 1.6 l/m 3.7 km/h (1 Bft) S-SO 0.00 h 63 W/m 15.4 C 15.7 C 6.7 km/h (2 Bft)
21.06.2007 11:00 17.3 C 97 % 1012.6 hPa 0.0 l/m 3.8 km/h (1 Bft) SW 0.33 h 451 W/m 16.8 C 17.3 C 7.8 km/h (2 Bft)
21.06.2007 12:00 19.5 C 87 % 1013.1 hPa 0.0 l/m 7.4 km/h (2 Bft) W 0.47 h 493 W/m 17.2 C 19.5 C 12.2 km/h (2 Bft)
21.06.2007 13:00 18.5 C 85 % 1013.7 hPa 0.0 l/m 14.6 km/h (3 Bft) W 0.00 h 295 W/m 16.0 C 18.5 C 23.2 km/h (4 Bft)
21.06.2007 14:00 19.9 C 76 % 1013.7 hPa 0.2 l/m 19.0 km/h (3 Bft) W 0.15 h 493 W/m 15.6 C 19.9 C 27.8 km/h (4 Bft)
21.06.2007 15:00 21.1 C 69 % 1014.1 hPa 0.0 l/m 20.0 km/h (4 Bft) W 0.55 h 635 W/m 15.1 C 21.1 C 28.9 km/h (5 Bft)
21.06.2007 16:00 21.1 C 65 % 1014.3 hPa 0.0 l/m 17.2 km/h (3 Bft) W 0.65 h 567 W/m 14.2 C 21.1 C 25.6 km/h (4 Bft)
21.06.2007 17:00 21.6 C 61 % 1014.2 hPa 0.0 l/m 16.5 km/h (3 Bft) W 1.00 h 538 W/m 13.8 C 21.6 C 24.7 km/h (4 Bft)
21.06.2007 18:00 21.7 C 61 % 1014.2 hPa 0.0 l/m 12.9 km/h (3 Bft) W 0.95 h 401 W/m 13.7 C 21.7 C 19.9 km/h (4 Bft)
21.06.2007 19:00 21.0 C 62 % 1014.3 hPa 0.0 l/m 12.2 km/h (2 Bft) W-NW 0.93 h 219 W/m 13.4 C 21.0 C 18.4 km/h (3 Bft)
21.06.2007 20:00 20.1 C 64 % 1014.6 hPa 0.0 l/m 9.6 km/h (2 Bft) W 0.57 h 88 W/m 13.1 C 20.1 C 14.7 km/h (3 Bft)
21.06.2007 21:00 18.6 C 72 % 1015.0 hPa 0.0 l/m 0.4 km/h (0 Bft) W 0.00 h 7 W/m 13.4 C 18.6 C 1.0 km/h (0 Bft)
21.06.2007 22:00 17.9 C 79 % 1015.4 hPa 0.0 l/m 0.4 km/h (0 Bft) S-SW 0.00 h 0 W/m 14.1 C 17.9 C 0.9 km/h (0 Bft)
21.06.2007 23:00 17.4 C 80 % 1015.6 hPa 0.0 l/m 0.8 km/h (0 Bft) N-NW 0.00 h 0 W/m 13.8 C 17.4 C 1.9 km/h (1 Bft)
22.06.2007 00:00 16.1 C 83 % 1015.1 hPa 0.0 l/m 1.0 km/h (0 Bft) O 0.00 h 0 W/m 13.3 C 16.1 C 2.2 km/h (1 Bft)
22.06.2007 01:00 15.1 C 88 % 1014.9 hPa 0.0 l/m 0.6 km/h (0 Bft) O-SO 0.00 h 0 W/m 13.2 C 15.1 C 1.5 km/h (1 Bft)
22.06.2007 02:00 14.6 C 90 % 1014.2 hPa 0.0 l/m 0.2 km/h (0 Bft) O 0.00 h 0 W/m 13.0 C 14.6 C 0.6 km/h (0 Bft)
22.06.2007 03:00 14.3 C 91 % 1013.4 hPa 0.0 l/m 0.1 km/h (0 Bft) O 0.00 h 0 W/m 12.9 C 14.3 C 0.4 km/h (0 Bft)
22.06.2007 04:00 14.1 C 92 % 1012.6 hPa 0.0 l/m 0.0 km/h (0 Bft) N 0.00 h 0 W/m 12.8 C 14.1 C 0.3 km/h (0 Bft)
22.06.2007 05:00 13.7 C 92 % 1012.4 hPa 0.0 l/m 0.1 km/h (0 Bft) O 0.08 h 12 W/m 12.5 C 13.7 C 0.4 km/h (0 Bft)
22.06.2007 06:00 14.0 C 92 % 1011.9 hPa 0.0 l/m 1.0 km/h (0 Bft) O 0.00 h 51 W/m 12.7 C 14.0 C 2.0 km/h (1 Bft)
22.06.2007 07:00 14.8 C 89 % 1011.4 hPa 0.0 l/m 0.1 km/h (0 Bft) W-NW 0.00 h 79 W/m 13.0 C 14.8 C 0.7 km/h (0 Bft)
22.06.2007 08:00 15.8 C 85 % 1011.4 hPa 0.0 l/m 3.1 km/h (1 Bft) W-NW 0.00 h 166 W/m 13.3 C 15.8 C 5.2 km/h (1 Bft)
22.06.2007 09:00 16.5 C 81 % 1011.9 hPa 0.0 l/m 8.2 km/h (2 Bft) W 0.07 h 149 W/m 13.1 C 16.5 C 12.4 km/h (3 Bft)
22.06.2007 10:00 14.7 C 93 % 1013.5 hPa 2.6 l/m 14.6 km/h (3 Bft) W 0.00 h 108 W/m 13.6 C 14.7 C 22.4 km/h (4 Bft)
22.06.2007 11:00 14.6 C 91 % 1014.2 hPa 0.0 l/m 13.7 km/h (3 Bft) W 0.20 h 461 W/m 13.2 C 14.6 C 21.2 km/h (4 Bft)
22.06.2007 12:00 16.7 C 78 % 1014.4 hPa 0.0 l/m 12.3 km/h (3 Bft) W 0.48 h 632 W/m 12.8 C 16.7 C 19.0 km/h (3 Bft)
22.06.2007 13:00 19.4 C 65 % 1014.0 hPa 0.0 l/m 10.5 km/h (2 Bft) W 0.92 h 906 W/m 12.6 C 19.4 C 16.1 km/h (3 Bft)
22.06.2007 14:00 20.3 C 65 % 1013.3 hPa 0.0 l/m 5.2 km/h (1 Bft) W 0.53 h 654 W/m 13.5 C 20.3 C 8.5 km/h (2 Bft)
22.06.2007 15:00 20.4 C 64 % 1012.7 hPa 0.0 l/m 2.5 km/h (1 Bft) S-SO 0.20 h 424 W/m 13.2 C 20.4 C 5.0 km/h (1 Bft)
22.06.2007 16:00 20.6 C 63 % 1012.3 hPa 0.0 l/m 2.2 km/h (1 Bft) O-SO 0.15 h 308 W/m 13.3 C 20.6 C 4.3 km/h (1 Bft)
22.06.2007 17:00 20.5 C 61 % 1012.2 hPa 0.0 l/m 12.2 km/h (2 Bft) W-NW 0.58 h 402 W/m 12.7 C 20.5 C 18.4 km/h (3 Bft)
22.06.2007 18:00 20.3 C 55 % 1012.0 hPa 0.0 l/m 12.5 km/h (3 Bft) W 1.00 h 369 W/m 10.9 C 20.3 C 18.9 km/h (3 Bft)
22.06.2007 19:00 20.2 C 58 % 1012.1 hPa 0.0 l/m 10.1 km/h (2 Bft) W-NW 1.00 h 222 W/m 11.7 C 20.2 C 15.1 km/h (3 Bft)
22.06.2007 20:00 19.0 C 65 % 1012.3 hPa 0.0 l/m 4.0 km/h (1 Bft) W 0.40 h 64 W/m 12.3 C 19.0 C 6.7 km/h (2 Bft)
22.06.2007 21:00 16.8 C 78 % 1012.9 hPa 0.2 l/m 2.2 km/h (1 Bft) SO 0.00 h 6 W/m 13.0 C 16.8 C 3.8 km/h (1 Bft)
22.06.2007 22:00 15.5 C 89 % 1013.8 hPa 0.0 l/m 0.4 km/h (0 Bft) SO 0.00 h 0 W/m 13.8 C 15.5 C 1.4 km/h (1 Bft)
22.06.2007 23:00 15.3 C 89 % 1014.1 hPa 0.0 l/m 1.4 km/h (1 Bft) W 0.00 h 0 W/m 13.5 C 15.3 C 3.4 km/h (1 Bft)
23.06.2007 00:00 15.1 C 84 % 1014.2 hPa 0.0 l/m 1.2 km/h (1 Bft) W 0.00 h 0 W/m 12.4 C 15.1 C 2.5 km/h (1 Bft)
23.06.2007 01:00 14.8 C 86 % 1013.7 hPa 0.0 l/m 0.7 km/h (0 Bft) W 0.00 h 0 W/m 12.4 C 14.8 C 2.2 km/h (1 Bft)
23.06.2007 02:00 14.6 C 83 % 1013.6 hPa 0.0 l/m 1.9 km/h (1 Bft) W 0.00 h 0 W/m 11.8 C 14.6 C 3.7 km/h (1 Bft)
23.06.2007 03:00 14.8 C 82 % 1013.5 hPa 0.0 l/m 0.4 km/h (0 Bft) W-SW 0.00 h 0 W/m 11.7 C 14.8 C 1.8 km/h (1 Bft)
23.06.2007 04:00 14.8 C 79 % 1013.6 hPa 0.0 l/m 5.2 km/h (1 Bft) W 0.00 h 0 W/m 11.2 C 14.8 C 8.3 km/h (2 Bft)
23.06.2007 05:00 15.0 C 77 % 1013.7 hPa 0.0 l/m 3.7 km/h (1 Bft) W 0.02 h 11 W/m 11.1 C 15.0 C 6.6 km/h (2 Bft)
23.06.2007 06:00 14.4 C 87 % 1014.1 hPa 0.0 l/m 1.1 km/h (1 Bft) W-SW 0.15 h 72 W/m 12.2 C 14.4 C 3.5 km/h (1 Bft)
23.06.2007 07:00 15.6 C 86 % 1014.1 hPa 0.0 l/m 1.6 km/h (1 Bft) W-SW 0.33 h 170 W/m 13.2 C 15.6 C 3.3 km/h (1 Bft)
23.06.2007 08:00 16.8 C 71 % 1014.3 hPa 0.0 l/m 6.5 km/h (2 Bft) W 0.83 h 385 W/m 11.6 C 16.8 C 10.6 km/h (2 Bft)
23.06.2007 09:00 17.9 C 62 % 1014.8 hPa 0.2 l/m 11.9 km/h (2 Bft) W 0.87 h 583 W/m 10.6 C 17.9 C 18.5 km/h (3 Bft)
23.06.2007 10:00 18.3 C 59 % 1014.8 hPa 0.0 l/m 17.4 km/h (3 Bft) W 0.53 h 519 W/m 10.1 C 18.3 C 25.5 km/h (4 Bft)
23.06.2007 11:00 18.0 C 60 % 1015.1 hPa 0.0 l/m 20.3 km/h (4 Bft) W 0.40 h 411 W/m 10.0 C 18.0 C 29.2 km/h (5 Bft)
23.06.2007 12:00 18.6 C 60 % 1015.5 hPa 0.0 l/m 13.6 km/h (3 Bft) W 0.27 h 560 W/m 10.7 C 18.6 C 21.1 km/h (4 Bft)
23.06.2007 13:00 19.1 C 58 % 1015.6 hPa 0.0 l/m 17.7 km/h (3 Bft) W 0.75 h 645 W/m 10.6 C 19.1 C 26.8 km/h (4 Bft)
23.06.2007 14:00 19.4 C 57 % 1015.8 hPa 0.0 l/m 18.2 km/h (3 Bft) W 0.33 h 571 W/m 10.7 C 19.4 C 26.5 km/h (4 Bft)
23.06.2007 15:00 19.9 C 56 % 1015.8 hPa 0.0 l/m 21.3 km/h (4 Bft) W 0.97 h 772 W/m 10.8 C 19.9 C 30.8 km/h (5 Bft)
23.06.2007 16:00 20.9 C 53 % 1015.3 hPa 0.0 l/m 15.2 km/h (3 Bft) W 1.00 h 674 W/m 10.9 C 20.9 C 22.9 km/h (4 Bft)
23.06.2007 17:00 21.4 C 52 % 1014.9 hPa 0.0 l/m 16.7 km/h (3 Bft) W 1.00 h 582 W/m 11.2 C 21.4 C 24.3 km/h (4 Bft)
23.06.2007 18:00 21.2 C 53 % 1014.9 hPa 0.0 l/m 14.3 km/h (3 Bft) W 1.00 h 378 W/m 11.3 C 21.2 C 21.2 km/h (4 Bft)
23.06.2007 19:00 20.3 C 55 % 1015.4 hPa 0.0 l/m 12.5 km/h (3 Bft) W 1.00 h 215 W/m 11.0 C 20.3 C 19.5 km/h (3 Bft)
23.06.2007 20:00 19.0 C 61 % 1015.6 hPa 0.0 l/m 8.1 km/h (2 Bft) W-NW 0.52 h 74 W/m 11.3 C 19.0 C 11.9 km/h (2 Bft)
23.06.2007 21:00 17.3 C 69 % 1015.8 hPa 0.0 l/m 3.3 km/h (1 Bft) W-NW 0.07 h 13 W/m 11.5 C 17.3 C 5.0 km/h (1 Bft)
23.06.2007 22:00 16.4 C 75 % 1016.4 hPa 0.0 l/m 1.4 km/h (1 Bft) SO 0.00 h 0 W/m 12.0 C 16.4 C 2.3 km/h (1 Bft)
23.06.2007 23:00 15.5 C 81 % 1016.9 hPa 0.0 l/m 1.3 km/h (1 Bft) SO 0.00 h 0 W/m 12.3 C 15.5 C 2.1 km/h (1 Bft)
24.06.2007 00:00 14.6 C 85 % 1017.1 hPa 0.0 l/m 1.5 km/h (1 Bft) SO 0.00 h 0 W/m 12.0 C 14.6 C 2.8 km/h (1 Bft)
24.06.2007 01:00 13.3 C 90 % 1017.0 hPa 0.0 l/m 1.3 km/h (1 Bft) SO 0.00 h 0 W/m 11.6 C 13.3 C 2.1 km/h (1 Bft)
24.06.2007 02:00 12.7 C 92 % 1017.1 hPa 0.0 l/m 1.8 km/h (1 Bft) SO 0.00 h 0 W/m 11.4 C 12.7 C 3.0 km/h (1 Bft)
24.06.2007 03:00 12.5 C 93 % 1017.2 hPa 0.0 l/m 0.3 km/h (0 Bft) SO 0.00 h 0 W/m 11.4 C 12.5 C 0.8 km/h (0 Bft)
24.06.2007 04:00 12.1 C 94 % 1016.9 hPa 0.0 l/m 0.0 km/h (0 Bft) N 0.00 h 0 W/m 11.2 C 12.1 C 0.2 km/h (0 Bft)
24.06.2007 05:00 11.4 C 96 % 1017.1 hPa 0.0 l/m 0.0 km/h (0 Bft) SO 0.00 h 10 W/m 10.8 C 11.4 C 0.3 km/h (0 Bft)
24.06.2007 06:00 11.3 C 96 % 1017.1 hPa 0.0 l/m 0.0 km/h (0 Bft) N 0.15 h 41 W/m 10.7 C 11.3 C 0.0 km/h (0 Bft)
24.06.2007 07:00 13.1 C 91 % 1017.0 hPa 0.0 l/m 0.2 km/h (0 Bft) W-SW 1.00 h 209 W/m 11.7 C 13.1 C 0.7 km/h (0 Bft)
24.06.2007 08:00 15.5 C 84 % 1016.7 hPa 0.0 l/m 0.7 km/h (0 Bft) W-SW 1.00 h 373 W/m 12.7 C 15.5 C 2.2 km/h (1 Bft)
24.06.2007 09:00 17.6 C 75 % 1016.2 hPa 0.0 l/m 1.8 km/h (1 Bft) W-NW 1.00 h 534 W/m 13.1 C 17.6 C 3.5 km/h (1 Bft)
24.06.2007 10:00 19.8 C 63 % 1015.6 hPa 0.0 l/m 3.0 km/h (1 Bft) W-NW 1.00 h 672 W/m 12.6 C 19.8 C 4.8 km/h (1 Bft)
24.06.2007 11:00 21.3 C 57 % 1015.1 hPa 0.0 l/m 2.8 km/h (1 Bft) W-NW 0.87 h 710 W/m 12.4 C 21.3 C 5.3 km/h (1 Bft)
24.06.2007 12:00 22.4 C 50 % 1014.6 hPa 0.0 l/m 3.7 km/h (1 Bft) O-SO 1.00 h 853 W/m 11.5 C 22.4 C 6.7 km/h (2 Bft)
24.06.2007 13:00 23.6 C 47 % 1014.2 hPa 0.0 l/m 2.7 km/h (1 Bft) W 1.00 h 878 W/m 11.7 C 23.6 C 5.5 km/h (1 Bft)
24.06.2007 14:00 24.7 C 46 % 1013.6 hPa 0.0 l/m 2.8 km/h (1 Bft) W-NW 1.00 h 841 W/m 12.1 C 24.7 C 5.4 km/h (1 Bft)
24.06.2007 15:00 25.6 C 44 % 1012.8 hPa 0.0 l/m 3.9 km/h (1 Bft) O-SO 1.00 h 734 W/m 12.3 C 25.6 C 7.1 km/h (2 Bft)
24.06.2007 16:00 25.8 C 42 % 1012.3 hPa 0.0 l/m 3.1 km/h (1 Bft) W-NW 0.70 h 494 W/m 12.0 C 25.8 C 5.6 km/h (1 Bft)
24.06.2007 17:00 25.3 C 44 % 1011.7 hPa 0.0 l/m 2.3 km/h (1 Bft) W 0.35 h 327 W/m 12.1 C 25.3 C 4.5 km/h (1 Bft)
24.06.2007 18:00 24.5 C 45 % 1011.4 hPa 0.0 l/m 0.7 km/h (0 Bft) W 0.00 h 161 W/m 11.8 C 24.5 C 1.8 km/h (1 Bft)
24.06.2007 19:00 23.5 C 55 % 1010.8 hPa 0.0 l/m 2.2 km/h (1 Bft) O-SO 0.00 h 91 W/m 14.0 C 23.5 C 3.5 km/h (1 Bft)
24.06.2007 20:00 22.2 C 61 % 1010.3 hPa 0.0 l/m 1.1 km/h (1 Bft) O-SO 0.00 h 24 W/m 14.2 C 22.2 C 2.2 km/h (1 Bft)
24.06.2007 21:00 20.7 C 72 % 1010.4 hPa 0.0 l/m 0.3 km/h (0 Bft) O-SO 0.00 h 7 W/m 15.4 C 20.7 C 0.8 km/h (0 Bft)
24.06.2007 22:00 19.6 C 78 % 1010.7 hPa 0.0 l/m 2.5 km/h (1 Bft) O-SO 0.00 h 0 W/m 15.6 C 19.6 C 3.7 km/h (1 Bft)
24.06.2007 23:00 19.1 C 80 % 1011.0 hPa 0.0 l/m 0.8 km/h (0 Bft) O-SO 0.00 h 0 W/m 15.6 C 19.1 C 1.8 km/h (1 Bft)
Min-Datum _ 24.06.07 24.06.07 19.06.07 - 18.06.07 - - - 24.06.07 24.06.07 18.06.07
_ Min-Zeit 05:36 16:39 20:15 - 00:00 - - - 16:39 05:36 00:00
Minimum _ 11.1 C 35 % 1009.1 hPa - 0.0 km/h (0 Bft) - - - 9.1 C 11.1 C 0.0 km/h (0 Bft)
Max-Datum _ 20.06.07 19.06.07 24.06.07 18.06.07 21.06.07 - 18.06.07 23.06.07 20.06.07 20.06.07 21.06.07
_ Max-Zeit 16:22 06:05 03:00 14:36 09:26 - 05:46 12:43 15:02 16:22 09:26
Maximum _ 30.3 C 100 % 1017.2 hPa 13.8 l/m 42.9 km/h
W (6 Bft)
- 0.02 h 1322 W/m 20.8 C 30.3 C 64.3 km/h
W-NW (8 Bft)
Durchschnitt _ 19.6 C 76 % 1013.1 hPa #40.2 l/m 4.4 km/h (1 Bft) W #61:44 h 375 W/m 14.7 C 19.6 C 7.3 km/h (2 Bft)
© Kaiko 2007